Time,TemperatureF,DewpointF,PressureIn,WindDirection,WindDirectionDegrees,WindSpeedMPH,WindSpeedGustMPH,Humidity,HourlyPrecipIn,Conditions,Clouds,dailyrainin,SoftwareType,DateUTC
2013-09-23 00:13:00,57.9,52.0,29.91,ESE,115,2.0,10.0,81,0.00,,,0.00,weatherlink.com 1.10,2013-09-23 05:13:00,
2013-09-23 00:28:00,57.4,52.0,29.91,SSE,148,5.0,8.0,82,0.00,,,0.00,weatherlink.com 1.10,2013-09-23 05:28:00,
2013-09-23 00:43:00,56.8,51.0,29.91,SSE,148,5.0,8.0,82,0.00,,,0.00,weatherlink.com 1.10,2013-09-23 05:43:00,
2013-09-23 00:58:00,56.2,51.0,29.91,South,177,6.0,9.0,83,0.00,,,0.00,weatherlink.com 1.10,2013-09-23 05:58:00,
2013-09-23 01:13:00,55.7,51.0,29.91,SE,141,5.0,9.0,84,0.00,,,0.00,weatherlink.com 1.10,2013-09-23 06:13:00,
2013-09-23 01:28:00,55.3,51.0,29.91,South,184,4.0,8.0,84,0.00,,,0.00,weatherlink.com 1.10,2013-09-23 06:28:00,
2013-09-23 01:43:00,55.4,50.0,29.92,South,183,5.0,11.0,83,0.00,,,0.00,weatherlink.com 1.10,2013-09-23 06:43:00,
2013-09-23 01:58:00,55.5,50.0,29.92,South,183,7.0,11.0,83,0.00,,,0.00,weatherlink.com 1.10,2013-09-23 06:58:00,
2013-09-23 02:13:00,55.2,50.0,29.92,SSE,148,6.0,10.0,83,0.00,,,0.00,weatherlink.com 1.10,2013-09-23 07:13:00,
2013-09-23 02:29:00,54.7,50.0,29.92,SW,217,7.0,8.0,84,0.00,,,0.00,weatherlink.com 1.10,2013-09-23 07:29:00,
2013-09-23 02:44:00,54.4,50.0,29.91,SE,137,6.0,11.0,85,0.00,,,0.00,weatherlink.com 1.10,2013-09-23 07:44:00,
2013-09-23 02:59:00,54.1,50.0,29.91,ENE,65,2.0,7.0,85,0.00,,,0.00,weatherlink.com 1.10,2013-09-23 07:59:00,
2013-09-23 03:14:00,54.0,50.0,29.91,SSE,161,5.0,11.0,85,0.00,,,0.00,weatherlink.com 1.10,2013-09-23 08:14:00,
2013-09-23 03:29:00,53.6,50.0,29.91,SE,141,4.0,11.0,86,0.00,,,0.00,weatherlink.com 1.10,2013-09-23 08:29:00,
2013-09-23 03:44:00,53.3,50.0,29.91,SSE,165,10.0,13.0,87,0.00,,,0.00,weatherlink.com 1.10,2013-09-23 08:44:00,
2013-09-23 04:14:00,52.4,49.0,29.91,ESE,122,7.0,10.0,88,0.00,,,0.00,weatherlink.com 1.10,2013-09-23 09:14:00,
2013-09-23 04:29:00,52.4,49.0,29.91,SSE,150,4.0,10.0,88,0.00,,,0.00,weatherlink.com 1.10,2013-09-23 09:29:00,
2013-09-23 04:44:00,52.1,49.0,29.91,SE,130,2.0,8.0,89,0.00,,,0.00,weatherlink.com 1.10,2013-09-23 09:44:00,
2013-09-23 04:59:00,51.9,49.0,29.91,ESE,112,3.0,8.0,89,0.00,,,0.00,weatherlink.com 1.10,2013-09-23 09:59:00,
2013-09-23 05:14:00,51.9,49.0,29.91,SE,145,2.0,11.0,90,0.00,,,0.00,weatherlink.com 1.10,2013-09-23 10:14:00,
2013-09-23 05:29:00,51.7,49.0,29.91,East,79,2.0,8.0,90,0.00,,,0.00,weatherlink.com 1.10,2013-09-23 10:29:00,
2013-09-23 05:44:00,51.4,49.0,29.91,SE,145,3.0,9.0,90,0.00,,,0.00,weatherlink.com 1.10,2013-09-23 10:44:00,
2013-09-23 05:59:00,51.3,49.0,29.91,ESE,113,3.0,9.0,91,0.00,,,0.00,weatherlink.com 1.10,2013-09-23 10:59:00,
2013-09-23 06:14:00,51.2,49.0,29.91,SSE,162,5.0,10.0,91,0.00,,,0.00,weatherlink.com 1.10,2013-09-23 11:14:00,
2013-09-23 06:29:00,51.4,49.0,29.91,NE,56,0.0,9.0,91,0.00,,,0.00,weatherlink.com 1.10,2013-09-23 11:29:00,
2013-09-23 06:44:00,51.6,49.0,29.92,SE,133,4.0,12.0,91,0.00,,,0.00,weatherlink.com 1.10,2013-09-23 11:44:00,
2013-09-23 06:59:00,51.8,49.0,29.92,East,97,9.0,10.0,90,0.00,,,0.00,weatherlink.com 1.10,2013-09-23 11:59:00,
2013-09-23 07:14:00,52.1,49.0,29.93,ESE,103,5.0,10.0,90,0.00,,,0.00,weatherlink.com 1.10,2013-09-23 12:14:00,
2013-09-23 07:29:00,52.6,49.0,29.93,ESE,120,5.0,11.0,88,0.00,,,0.00,weatherlink.com 1.10,2013-09-23 12:29:00,
2013-09-23 07:44:00,52.8,49.0,29.94,ESE,103,2.0,8.0,87,0.00,,,0.00,weatherlink.com 1.10,2013-09-23 12:44:00,
2013-09-23 07:59:00,53.2,50.0,29.94,SE,138,3.0,10.0,87,0.00,,,0.00,weatherlink.com 1.10,2013-09-23 12:59:00,
2013-09-23 08:14:00,54.5,50.0,29.93,ENE,63,4.0,11.0,84,0.00,,,0.00,weatherlink.com 1.10,2013-09-23 13:14:00,
2013-09-23 08:29:00,55.7,50.0,29.93,East,98,3.0,14.0,81,0.00,,,0.00,weatherlink.com 1.10,2013-09-23 13:29:00,
2013-09-23 08:44:00,56.7,51.0,29.94,SSW,197,10.0,17.0,80,0.00,,,0.00,weatherlink.com 1.10,2013-09-23 13:44:00,
2013-09-23 08:59:00,57.8,51.0,29.94,South,187,6.0,20.0,78,0.00,,,0.00,weatherlink.com 1.10,2013-09-23 13:59:00,
2013-09-23 09:14:00,58.9,52.0,29.94,SE,139,7.0,15.0,78,0.00,,,0.00,weatherlink.com 1.10,2013-09-23 14:14:00,
2013-09-23 09:29:00,59.4,51.0,29.94,SSE,153,13.0,27.0,74,0.00,,,0.00,weatherlink.com 1.10,2013-09-23 14:29:00,
2013-09-23 09:44:00,59.7,51.0,29.95,SSE,160,14.0,20.0,74,0.00,,,0.00,weatherlink.com 1.10,2013-09-23 14:44:00,
2013-09-23 09:59:00,60.5,52.0,29.95,SSE,165,11.0,21.0,73,0.00,,,0.00,weatherlink.com 1.10,2013-09-23 14:59:00,
2013-09-23 10:14:00,61.5,52.0,29.95,WSW,251,8.0,20.0,71,0.00,,,0.00,weatherlink.com 1.10,2013-09-23 15:14:00,
2013-09-23 10:30:00,62.2,52.0,29.95,SSE,148,11.0,22.0,70,0.00,,,0.00,weatherlink.com 1.10,2013-09-23 15:30:00,
2013-09-23 10:45:00,63.9,53.0,29.95,NE,55,3.0,25.0,67,0.00,,,0.00,weatherlink.com 1.10,2013-09-23 15:45:00,
2013-09-23 11:00:00,64.5,52.0,29.94,SSE,168,11.0,25.0,65,0.00,,,0.00,weatherlink.com 1.10,2013-09-23 16:00:00,
2013-09-23 11:15:00,65.6,53.0,29.94,ESE,122,6.0,22.0,64,0.00,,,0.00,weatherlink.com 1.10,2013-09-23 16:15:00,
2013-09-23 11:30:00,66.5,52.0,29.93,South,174,18.0,31.0,61,0.00,,,0.00,weatherlink.com 1.10,2013-09-23 16:30:00,
2013-09-23 11:45:00,67.5,52.0,29.93,South,190,10.0,24.0,59,0.00,,,0.00,weatherlink.com 1.10,2013-09-23 16:45:00,
2013-09-23 12:00:00,68.0,52.0,29.92,SSE,160,11.0,26.0,58,0.00,,,0.00,weatherlink.com 1.10,2013-09-23 17:00:00,
2013-09-23 12:15:00,68.8,53.0,29.92,SSE,160,22.0,28.0,57,0.00,,,0.00,weatherlink.com 1.10,2013-09-23 17:15:00,
2013-09-23 12:30:00,70.2,54.0,29.91,South,188,13.0,22.0,57,0.00,,,0.00,weatherlink.com 1.10,2013-09-23 17:30:00,
2013-09-23 12:45:00,71.4,52.0,29.90,SE,139,14.0,33.0,51,0.00,,,0.00,weatherlink.com 1.10,2013-09-23 17:45:00,
2013-09-23 13:00:00,71.8,51.0,29.90,South,171,23.0,29.0,49,0.00,,,0.00,weatherlink.com 1.10,2013-09-23 18:00:00,
2013-09-23 13:15:00,72.6,51.0,29.89,SE,146,15.0,27.0,47,0.00,,,0.00,weatherlink.com 1.10,2013-09-23 18:15:00,
2013-09-23 13:30:00,72.4,51.0,29.89,SSE,147,20.0,29.0,47,0.00,,,0.00,weatherlink.com 1.10,2013-09-23 18:30:00,
2013-09-23 13:45:00,73.0,50.0,29.88,South,190,12.0,30.0,45,0.00,,,0.00,weatherlink.com 1.10,2013-09-23 18:45:00,
2013-09-23 14:00:00,73.6,50.0,29.88,SE,146,26.0,29.0,43,0.00,,,0.00,weatherlink.com 1.10,2013-09-23 19:00:00,
2013-09-23 14:15:00,73.8,49.0,29.87,SSE,162,12.0,26.0,42,0.00,,,0.00,weatherlink.com 1.10,2013-09-23 19:15:00,
2013-09-23 14:30:00,73.9,50.0,29.87,SE,146,22.0,24.0,43,0.00,,,0.00,weatherlink.com 1.10,2013-09-23 19:30:00,
2013-09-23 14:45:00,74.1,50.0,29.87,SSE,165,14.0,28.0,43,0.00,,,0.00,weatherlink.com 1.10,2013-09-23 19:45:00,
2013-09-23 15:00:00,74.4,51.0,29.86,South,181,13.0,25.0,44,0.00,,,0.00,weatherlink.com 1.10,2013-09-23 20:00:00,
2013-09-23 15:15:00,74.4,50.0,29.86,East,81,12.0,23.0,43,0.00,,,0.00,weatherlink.com 1.10,2013-09-23 20:15:00,
2013-09-23 15:30:00,74.8,51.0,29.85,ESE,103,11.0,24.0,44,0.00,,,0.00,weatherlink.com 1.10,2013-09-23 20:30:00,
2013-09-23 16:01:00,75.0,50.0,29.84,SSE,155,25.0,29.0,41,0.00,,,0.00,weatherlink.com 1.10,2013-09-23 21:01:00,
2013-09-23 16:15:00,75.2,50.0,29.84,East,94,12.0,30.0,42,0.00,,,0.00,weatherlink.com 1.10,2013-09-23 21:15:00,
2013-09-23 16:30:00,75.1,50.0,29.84,East,99,16.0,23.0,42,0.00,,,0.00,weatherlink.com 1.10,2013-09-23 21:30:00,
2013-09-23 16:46:00,74.8,50.0,29.84,ESE,102,13.0,24.0,42,0.00,,,0.00,weatherlink.com 1.10,2013-09-23 21:46:00,
2013-09-23 17:01:00,74.4,50.0,29.84,SE,134,11.0,24.0,42,0.00,,,0.00,weatherlink.com 1.10,2013-09-23 22:01:00,
2013-09-23 17:16:00,74.2,50.0,29.84,SE,127,14.0,22.0,43,0.00,,,0.00,weatherlink.com 1.10,2013-09-23 22:16:00,
2013-09-23 17:31:00,73.8,49.0,29.84,ESE,123,6.0,22.0,42,0.00,,,0.00,weatherlink.com 1.10,2013-09-23 22:31:00,
2013-09-23 17:46:00,73.4,49.0,29.84,ESE,109,6.0,17.0,43,0.00,,,0.00,weatherlink.com 1.10,2013-09-23 22:46:00,
2013-09-23 18:01:00,72.8,50.0,29.84,ESE,108,5.0,18.0,45,0.00,,,0.00,weatherlink.com 1.10,2013-09-23 23:01:00,
2013-09-23 18:16:00,72.2,50.0,29.85,ENE,74,9.0,16.0,45,0.00,,,0.00,weatherlink.com 1.10,2013-09-23 23:16:00,
2013-09-23 18:31:00,71.4,49.0,29.85,SE,124,5.0,14.0,45,0.00,,,0.00,weatherlink.com 1.10,2013-09-23 23:31:00,
2013-09-23 18:46:00,69.9,50.0,29.85,South,180,2.0,9.0,49,0.00,,,0.00,weatherlink.com 1.10,2013-09-23 23:46:00,
2013-09-23 19:01:00,68.0,51.0,29.85,SE,125,5.0,7.0,54,0.00,,,0.00,weatherlink.com 1.10,2013-09-24 00:01:00,
2013-09-23 19:16:00,65.7,51.0,29.86,ESE,105,2.0,4.0,59,0.00,,,0.00,weatherlink.com 1.10,2013-09-24 00:16:00,
2013-09-23 19:31:00,64.2,51.0,29.86,SE,130,1.0,4.0,62,0.00,,,0.00,weatherlink.com 1.10,2013-09-24 00:31:00,
2013-09-23 19:46:00,62.7,51.0,29.86,ESE,104,2.0,3.0,66,0.00,,,0.00,weatherlink.com 1.10,2013-09-24 00:46:00,
2013-09-23 20:01:00,60.9,51.0,29.87,East,101,6.0,7.0,70,0.00,,,0.00,weatherlink.com 1.10,2013-09-24 01:01:00,
2013-09-23 20:17:00,59.6,51.0,29.88,East,97,3.0,8.0,73,0.00,,,0.00,weatherlink.com 1.10,2013-09-24 01:17:00,
2013-09-23 20:31:00,58.4,51.0,29.89,East,89,2.0,5.0,76,0.00,,,0.00,weatherlink.com 1.10,2013-09-24 01:31:00,
2013-09-23 20:46:00,57.8,51.0,29.89,East,95,4.0,6.0,78,0.00,,,0.00,weatherlink.com 1.10,2013-09-24 01:46:00,
2013-09-23 21:02:00,57.9,51.0,29.89,ESE,105,5.0,9.0,78,0.00,,,0.00,weatherlink.com 1.10,2013-09-24 02:02:00,
2013-09-23 21:16:00,57.5,51.0,29.89,East,100,6.0,10.0,79,0.00,,,0.00,weatherlink.com 1.10,2013-09-24 02:16:00,
2013-09-23 21:31:00,57.6,51.0,29.89,East,89,9.0,12.0,79,0.00,,,0.00,weatherlink.com 1.10,2013-09-24 02:31:00,
2013-09-23 21:46:00,57.4,51.0,29.90,ESE,105,5.0,10.0,78,0.00,,,0.00,weatherlink.com 1.10,2013-09-24 02:46:00,
2013-09-23 22:01:00,57.2,51.0,29.89,East,90,6.0,11.0,79,0.00,,,0.00,weatherlink.com 1.10,2013-09-24 03:01:00,
2013-09-23 22:16:00,57.5,51.0,29.89,East,86,5.0,14.0,80,0.00,,,0.00,weatherlink.com 1.10,2013-09-24 03:16:00,
2013-09-23 22:31:00,57.7,52.0,29.90,East,98,10.0,12.0,80,0.00,,,0.00,weatherlink.com 1.10,2013-09-24 03:31:00,
2013-09-23 22:46:00,57.5,51.0,29.91,East,96,5.0,11.0,80,0.00,,,0.00,weatherlink.com 1.10,2013-09-24 03:46:00,
2013-09-23 23:01:00,57.4,52.0,29.91,ENE,78,5.0,11.0,81,0.00,,,0.00,weatherlink.com 1.10,2013-09-24 04:01:00,
2013-09-23 23:16:00,57.4,52.0,29.90,East,85,9.0,13.0,81,0.00,,,0.00,weatherlink.com 1.10,2013-09-24 04:16:00,
2013-09-23 23:31:00,57.2,51.0,29.91,ESE,106,5.0,13.0,81,0.00,,,0.00,weatherlink.com 1.10,2013-09-24 04:31:00,
2013-09-23 23:46:00,56.7,51.0,29.91,East,87,6.0,-999.0,82,-99.99,,,0.00,weatherlink.com 1.10,2013-09-24 04:46:00,